Time;durP1;ratioP1;P1;durP2;ratioP2;P2;SDS_P1;SDS_P2;PMS_P1;PMS_P2;Temp;Humidity;BMP_temperature;BMP_pressure;BME280_temperature;BME280_humidity;BME280_pressure;Samples;Min_cycle;Max_cycle;Signal;HPM_P1;HPM_P2
2023/06/23 00:01:33;;;;;;;10.35;8.10;;;;;;;;;;5072519;28;20027;-67
2023/06/23 00:03:59;;;;;;;13.00;8.20;;;;;;;;;;5031795;28;20028;-71
2023/06/23 00:06:24;;;;;;;11.43;8.02;;;;;;;;;;5064076;28;20033;-66
2023/06/23 00:08:49;;;;;;;9.98;7.47;;;;;;;;;;5066168;28;20460;-69
2023/06/23 00:11:14;;;;;;;9.40;7.37;;;;;;;;;;5070443;28;20090;-70
2023/06/23 00:13:40;;;;;;;9.73;7.43;;;;;;;;;;5077025;28;20802;-68
2023/06/23 00:16:05;;;;;;;9.80;7.33;;;;;;;;;;5047826;28;20328;-68
2023/06/23 00:18:36;;;;;;;11.27;7.68;;;;;;;;;;5065709;28;20352;-69
2023/06/23 00:21:06;;;;;;;10.18;7.32;;;;;;;;;;5064604;28;20192;-66
2023/06/23 00:23:31;;;;;;;10.65;7.93;;;;;;;;;;5064748;28;20037;-70
2023/06/23 00:25:57;;;;;;;10.75;7.93;;;;;;;;;;5065112;28;20484;-67
2023/06/23 00:28:22;;;;;;;9.93;7.45;;;;;;;;;;5031687;28;20470;-69
2023/06/23 00:30:49;;;;;;;10.15;7.20;;;;;;;;;;5066466;28;20509;-68
2023/06/23 00:33:14;;;;;;;11.40;8.05;;;;;;;;;;5047015;28;20043;-66
2023/06/23 00:35:39;;;;;;;11.60;8.10;;;;;;;;;;5064912;28;20036;-68
2023/06/23 00:38:04;;;;;;;10.23;8.07;;;;;;;;;;5047748;28;20410;-68
2023/06/23 00:40:30;;;;;;;9.37;7.67;;;;;;;;;;5065611;28;20480;-70
2023/06/23 00:42:55;;;;;;;12.27;7.80;;;;;;;;;;5065724;28;20289;-68
2023/06/23 00:45:20;;;;;;;14.70;8.10;;;;;;;;;;5063392;28;20322;-69
2023/06/23 00:47:46;;;;;;;12.85;7.90;;;;;;;;;;5046602;28;20275;-70
2023/06/23 00:50:15;;;;;;;9.82;7.55;;;;;;;;;;5064212;28;20105;-70
2023/06/23 00:52:45;;;;;;;10.52;7.28;;;;;;;;;;5046392;28;20071;-69
2023/06/23 00:55:11;;;;;;;9.75;7.55;;;;;;;;;;5066034;28;20037;-70
2023/06/23 00:57:36;;;;;;;11.27;8.30;;;;;;;;;;5047230;28;20101;-69
2023/06/23 01:00:05;;;;;;;11.07;7.60;;;;;;;;;;5047357;28;20051;-69
2023/06/23 01:02:30;;;;;;;10.75;8.18;;;;;;;;;;5064277;28;20067;-67
2023/06/23 01:04:55;;;;;;;11.20;7.70;;;;;;;;;;5063617;28;20067;-68
2023/06/23 01:07:26;;;;;;;11.25;7.97;;;;;;;;;;5047311;28;20294;-70
2023/06/23 01:10:09;;;;;;;11.02;7.85;;;;;;;;;;5065486;28;20511;-69
2023/06/23 01:12:36;;;;;;;11.88;7.95;;;;;;;;;;5080298;28;20063;-68
2023/06/23 01:15:04;;;;;;;11.82;7.75;;;;;;;;;;5063456;28;20044;-69
2023/06/23 01:17:33;;;;;;;13.73;7.32;;;;;;;;;;5046740;28;20530;-65
2023/06/23 01:20:21;;;;;;;10.88;8.00;;;;;;;;;;5064442;28;20033;-64
2023/06/23 01:22:46;;;;;;;11.02;8.10;;;;;;;;;;5064874;28;20086;-67
2023/06/23 01:25:44;;;;;;;10.30;7.75;;;;;;;;;;5071518;28;20510;-65
2023/06/23 01:28:12;;;;;;;10.00;7.72;;;;;;;;;;5014284;28;20059;-64
2023/06/23 01:30:37;;;;;;;8.38;7.22;;;;;;;;;;5064596;28;20031;-66
2023/06/23 01:33:15;;;;;;;11.40;8.02;;;;;;;;;;5046753;28;20032;-69
2023/06/23 01:35:44;;;;;;;11.10;7.93;;;;;;;;;;5050087;28;20044;-69
2023/06/23 01:38:40;;;;;;;11.65;7.70;;;;;;;;;;5047037;28;20063;-66
2023/06/23 01:41:14;;;;;;;10.65;8.02;;;;;;;;;;5059188;28;20561;-69
2023/06/23 01:43:40;;;;;;;10.60;8.20;;;;;;;;;;5062354;28;20036;-67
2023/06/23 01:46:16;;;;;;;11.70;8.13;;;;;;;;;;5046133;28;20403;-68
2023/06/23 01:48:42;;;;;;;11.93;7.70;;;;;;;;;;5030984;28;20396;-67
2023/06/23 01:51:08;;;;;;;10.10;7.43;;;;;;;;;;5029872;28;20044;-69
2023/06/23 01:53:33;;;;;;;10.20;7.27;;;;;;;;;;5061813;28;20043;-69
2023/06/23 01:56:02;;;;;;;11.27;7.65;;;;;;;;;;5029928;28;20662;-66
2023/06/23 01:58:28;;;;;;;10.80;7.90;;;;;;;;;;5069338;28;20116;-64
2023/06/23 02:00:53;;;;;;;10.50;7.90;;;;;;;;;;5068124;28;20483;-68
2023/06/23 02:03:18;;;;;;;11.20;7.72;;;;;;;;;;5048909;28;20550;-67
2023/06/23 02:05:46;;;;;;;11.03;7.67;;;;;;;;;;5052150;28;20525;-67
2023/06/23 02:08:11;;;;;;;10.15;8.32;;;;;;;;;;5048200;28;20286;-68
2023/06/23 02:10:37;;;;;;;11.55;8.27;;;;;;;;;;5050528;28;20048;-68
2023/06/23 02:13:02;;;;;;;10.88;7.82;;;;;;;;;;5068798;28;20040;-67
2023/06/23 02:15:27;;;;;;;9.03;7.30;;;;;;;;;;5032395;28;20135;-65
2023/06/23 02:17:53;;;;;;;10.57;7.65;;;;;;;;;;5069490;28;20337;-66
2023/06/23 02:20:18;;;;;;;11.95;7.75;;;;;;;;;;5033404;28;20064;-68
2023/06/23 02:22:47;;;;;;;12.13;7.60;;;;;;;;;;5066296;28;20085;-68
2023/06/23 02:25:13;;;;;;;10.23;7.68;;;;;;;;;;5069255;28;20044;-68
2023/06/23 02:27:38;;;;;;;10.93;8.20;;;;;;;;;;5049930;28;20029;-65
2023/06/23 02:30:04;;;;;;;11.17;7.70;;;;;;;;;;5063821;28;20513;-65
2023/06/23 02:32:29;;;;;;;11.45;7.82;;;;;;;;;;5063398;28;20336;-64
2023/06/23 02:34:54;;;;;;;9.50;7.63;;;;;;;;;;5062664;28;20119;-68
2023/06/23 02:37:21;;;;;;;11.57;7.68;;;;;;;;;;5065058;28;20294;-67
2023/06/23 02:39:47;;;;;;;10.05;8.13;;;;;;;;;;5048063;28;20029;-69
2023/06/23 02:42:12;;;;;;;11.13;8.35;;;;;;;;;;5029177;28;20090;-69
2023/06/23 02:44:38;;;;;;;11.75;7.75;;;;;;;;;;5045861;28;20040;-69
2023/06/23 02:47:05;;;;;;;11.65;7.70;;;;;;;;;;5062388;28;20076;-69
2023/06/23 02:49:30;;;;;;;11.15;7.60;;;;;;;;;;5045939;28;20047;-69
2023/06/23 02:51:59;;;;;;;10.50;8.13;;;;;;;;;;5062542;28;20430;-69
2023/06/23 02:54:24;;;;;;;10.38;8.13;;;;;;;;;;5029141;28;20298;-68
2023/06/23 02:56:50;;;;;;;11.00;8.52;;;;;;;;;;5065885;28;20067;-70
2023/06/23 02:59:16;;;;;;;11.00;7.77;;;;;;;;;;5061708;28;20052;-66
2023/06/23 03:01:41;;;;;;;10.60;7.53;;;;;;;;;;5072351;28;20373;-69
2023/06/23 03:04:07;;;;;;;12.68;7.95;;;;;;;;;;5033277;28;20585;-67
2023/06/23 03:06:32;;;;;;;10.67;8.10;;;;;;;;;;5068805;28;20496;-67
2023/06/23 03:08:57;;;;;;;12.52;7.90;;;;;;;;;;5078968;28;20798;-69
2023/06/23 03:11:23;;;;;;;9.97;7.47;;;;;;;;;;5064145;28;20422;-69
2023/06/23 03:13:48;;;;;;;11.77;8.47;;;;;;;;;;5049723;28;20279;-70
2023/06/23 03:16:14;;;;;;;11.07;7.75;;;;;;;;;;5072110;28;20466;-66
2023/06/23 03:18:40;;;;;;;10.38;7.55;;;;;;;;;;5077446;28;20064;-68
2023/06/23 03:21:06;;;;;;;9.27;7.78;;;;;;;;;;5067922;28;20049;-69
2023/06/23 03:23:32;;;;;;;9.90;7.60;;;;;;;;;;5066678;28;20067;-69
2023/06/23 03:25:57;;;;;;;10.85;7.72;;;;;;;;;;5066321;28;20097;-68
2023/06/23 03:28:25;;;;;;;11.13;7.97;;;;;;;;;;5066047;28;20466;-69
2023/06/23 03:30:53;;;;;;;10.85;8.10;;;;;;;;;;5065721;28;20044;-67
2023/06/23 03:33:21;;;;;;;11.50;8.07;;;;;;;;;;5048147;28;20037;-67
2023/06/23 03:35:46;;;;;;;12.80;8.40;;;;;;;;;;5086161;28;20387;-68
2023/06/23 03:38:14;;;;;;;9.80;7.88;;;;;;;;;;5076779;28;20720;-72
2023/06/23 03:40:41;;;;;;;9.95;7.68;;;;;;;;;;5043427;28;20552;-68
2023/06/23 03:43:08;;;;;;;14.75;8.73;;;;;;;;;;5048483;28;20037;-69
2023/06/23 03:45:34;;;;;;;9.77;8.20;;;;;;;;;;5065122;28;20029;-65
2023/06/23 03:48:03;;;;;;;10.65;8.13;;;;;;;;;;5049055;28;20040;-67
2023/06/23 03:50:28;;;;;;;13.07;8.93;;;;;;;;;;5050894;28;20041;-66
2023/06/23 03:52:54;;;;;;;10.70;8.48;;;;;;;;;;5065173;28;20060;-68
2023/06/23 03:55:20;;;;;;;10.70;8.30;;;;;;;;;;5061040;28;20047;-66
2023/06/23 03:57:46;;;;;;;10.85;8.45;;;;;;;;;;5065498;28;20052;-66
2023/06/23 04:00:11;;;;;;;13.87;8.97;;;;;;;;;;5065020;28;20551;-70
2023/06/23 04:02:36;;;;;;;13.43;8.50;;;;;;;;;;5048534;28;20376;-67
2023/06/23 04:05:02;;;;;;;12.97;9.47;;;;;;;;;;5049918;28;20065;-68
2023/06/23 04:07:28;;;;;;;11.52;9.07;;;;;;;;;;5049546;28;20617;-69
2023/06/23 04:09:53;;;;;;;12.65;9.15;;;;;;;;;;5064503;28;20031;-65
2023/06/23 04:12:18;;;;;;;11.48;9.30;;;;;;;;;;5088833;28;20028;-67
2023/06/23 04:14:44;;;;;;;11.98;9.02;;;;;;;;;;5066222;28;20024;-68
2023/06/23 04:17:10;;;;;;;10.55;8.77;;;;;;;;;;5066440;28;20032;-67
2023/06/23 04:19:36;;;;;;;13.18;9.45;;;;;;;;;;5067211;28;20488;-68
2023/06/23 04:22:02;;;;;;;13.13;9.90;;;;;;;;;;5047903;28;20097;-70
2023/06/23 04:24:28;;;;;;;13.70;9.35;;;;;;;;;;5064164;28;20021;-67
2023/06/23 04:26:53;;;;;;;14.48;10.65;;;;;;;;;;5048050;28;20442;-70
2023/06/23 04:29:19;;;;;;;13.07;10.70;;;;;;;;;;5073809;28;20031;-65
2023/06/23 04:31:44;;;;;;;14.25;10.73;;;;;;;;;;5054905;28;20531;-67
2023/06/23 04:34:09;;;;;;;15.40;10.77;;;;;;;;;;5066255;28;20005;-67
2023/06/23 04:36:38;;;;;;;14.50;10.33;;;;;;;;;;5064273;28;20099;-68
2023/06/23 04:39:21;;;;;;;14.52;10.43;;;;;;;;;;5060510;28;20302;-66
2023/06/23 04:41:47;;;;;;;14.77;9.93;;;;;;;;;;5065616;28;20037;-67
2023/06/23 04:44:13;;;;;;;14.40;10.25;;;;;;;;;;5063202;28;20059;-67
2023/06/23 04:46:38;;;;;;;12.80;9.88;;;;;;;;;;5066008;28;20430;-68
2023/06/23 04:49:07;;;;;;;12.05;9.48;;;;;;;;;;5063156;28;20051;-67
2023/06/23 04:51:35;;;;;;;13.85;9.50;;;;;;;;;;5068349;28;20033;-67
2023/06/23 04:54:01;;;;;;;13.95;10.70;;;;;;;;;;5065111;28;20406;-67
2023/06/23 04:56:31;;;;;;;14.27;9.98;;;;;;;;;;5062690;28;20024;-67
2023/06/23 04:58:56;;;;;;;;;;;;;;;;;;5064936;28;20076;-68
2023/06/23 05:01:22;;;;;;;13.85;10.15;;;;;;;;;;5081016;28;20355;-68
2023/06/23 05:03:48;;;;;;;13.77;11.15;;;;;;;;;;5047178;28;20032;-67
2023/06/23 05:06:13;;;;;;;15.13;10.15;;;;;;;;;;5047039;28;20288;-65
2023/06/23 05:08:38;;;;;;;15.27;9.80;;;;;;;;;;5031042;28;20296;-67
2023/06/23 05:11:05;;;;;;;12.80;9.63;;;;;;;;;;5069009;28;20286;-69
2023/06/23 05:13:31;;;;;;;15.20;9.48;;;;;;;;;;5065189;28;20275;-67
2023/06/23 05:15:56;;;;;;;16.23;10.20;;;;;;;;;;5059777;28;20121;-64
2023/06/23 05:18:21;;;;;;;14.70;9.40;;;;;;;;;;5062787;28;20048;-66
2023/06/23 05:20:47;;;;;;;13.73;9.80;;;;;;;;;;5062503;28;20314;-69
2023/06/23 05:23:12;;;;;;;12.52;9.82;;;;;;;;;;5030028;28;20359;-69
2023/06/23 05:25:37;;;;;;;14.60;10.48;;;;;;;;;;5063325;28;20402;-64
2023/06/23 05:28:03;;;;;;;12.30;9.90;;;;;;;;;;5064042;28;20494;-69
2023/06/23 05:30:28;;;;;;;12.52;9.90;;;;;;;;;;5062184;28;20037;-67
2023/06/23 05:32:54;;;;;;;11.57;9.20;;;;;;;;;;5046704;28;20040;-68
2023/06/23 05:35:19;;;;;;;13.32;10.52;;;;;;;;;;5063795;28;20094;-64
2023/06/23 05:37:44;;;;;;;15.93;12.27;;;;;;;;;;5058390;28;20131;-62
2023/06/23 05:40:11;;;;;;;13.77;10.75;;;;;;;;;;5043780;28;20453;-70
2023/06/23 05:42:36;;;;;;;14.25;10.65;;;;;;;;;;5058688;28;20505;-63
2023/06/23 05:45:02;;;;;;;17.10;12.17;;;;;;;;;;5062421;28;20128;-64
2023/06/23 05:47:29;;;;;;;17.77;14.18;;;;;;;;;;5063909;28;20660;-63
2023/06/23 05:49:54;;;;;;;14.55;10.85;;;;;;;;;;5051763;28;20114;-62
2023/06/23 05:52:19;;;;;;;17.90;10.90;;;;;;;;;;5064789;28;20096;-67
2023/06/23 05:54:45;;;;;;;14.90;11.25;;;;;;;;;;5046138;28;20586;-64
2023/06/23 05:57:12;;;;;;;16.30;10.70;;;;;;;;;;5059778;28;20040;-62
2023/06/23 05:59:39;;;;;;;16.42;10.32;;;;;;;;;;5063709;28;20029;-69
2023/06/23 06:02:05;;;;;;;13.00;9.95;;;;;;;;;;5043655;28;20036;-66
2023/06/23 06:04:31;;;;;;;12.05;10.05;;;;;;;;;;5062212;28;20051;-64
2023/06/23 06:06:56;;;;;;;13.48;9.95;;;;;;;;;;5062826;28;20063;-68
2023/06/23 06:09:21;;;;;;;14.40;9.77;;;;;;;;;;5067897;28;20033;-64
2023/06/23 06:11:47;;;;;;;13.27;10.07;;;;;;;;;;5050672;28;20067;-70
2023/06/23 06:14:12;;;;;;;14.33;10.37;;;;;;;;;;5068100;28;20068;-63
2023/06/23 06:16:37;;;;;;;12.00;10.00;;;;;;;;;;5044323;28;20044;-65
2023/06/23 06:19:03;;;;;;;13.10;10.10;;;;;;;;;;5063767;28;20059;-68
2023/06/23 06:21:28;;;;;;;13.33;10.80;;;;;;;;;;5045750;28;20089;-70
2023/06/23 06:23:53;;;;;;;13.43;10.35;;;;;;;;;;5063567;28;20293;-64
2023/06/23 06:26:19;;;;;;;11.98;10.40;;;;;;;;;;5046767;28;20059;-68
2023/06/23 06:28:44;;;;;;;14.37;10.53;;;;;;;;;;5044169;28;20036;-68
2023/06/23 06:31:09;;;;;;;13.63;9.83;;;;;;;;;;5057368;28;20369;-71
2023/06/23 06:33:35;;;;;;;14.03;10.47;;;;;;;;;;5059843;28;20294;-66
2023/06/23 06:36:03;;;;;;;17.38;11.45;;;;;;;;;;5067940;28;20294;-65
2023/06/23 06:38:29;;;;;;;13.55;11.15;;;;;;;;;;5056698;28;20048;-67
2023/06/23 06:40:54;;;;;;;13.00;10.60;;;;;;;;;;5067274;28;20028;-67
2023/06/23 06:43:19;;;;;;;12.80;10.33;;;;;;;;;;5070552;28;20032;-66
2023/06/23 06:45:45;;;;;;;15.80;11.00;;;;;;;;;;5067353;28;20823;-66
2023/06/23 06:48:10;;;;;;;14.27;10.77;;;;;;;;;;5050358;28;20533;-67
2023/06/23 06:50:35;;;;;;;15.20;11.30;;;;;;;;;;5068832;28;20468;-66
2023/06/23 06:53:01;;;;;;;18.35;11.10;;;;;;;;;;5068549;28;20392;-67
2023/06/23 06:55:26;;;;;;;13.80;10.80;;;;;;;;;;5066294;28;20052;-68
2023/06/23 06:57:51;;;;;;;15.70;11.10;;;;;;;;;;5063936;28;20489;-67
2023/06/23 07:00:17;;;;;;;13.68;11.02;;;;;;;;;;5067538;28;20334;-67
2023/06/23 07:02:43;;;;;;;14.18;11.18;;;;;;;;;;5050793;28;20025;-68
2023/06/23 07:05:08;;;;;;;14.30;10.50;;;;;;;;;;5066608;28;20063;-68
2023/06/23 07:07:33;;;;;;;15.35;10.50;;;;;;;;;;5066743;28;20025;-64
2023/06/23 07:09:59;;;;;;;16.73;11.53;;;;;;;;;;5063801;28;20145;-62
2023/06/23 07:12:24;;;;;;;15.30;11.10;;;;;;;;;;5067651;28;20369;-68
2023/06/23 07:14:49;;;;;;;15.73;11.27;;;;;;;;;;5065085;28;20029;-63
2023/06/23 07:17:15;;;;;;;11.55;10.18;;;;;;;;;;5067026;28;20032;-67
2023/06/23 07:19:40;;;;;;;15.05;11.02;;;;;;;;;;5048337;28;20029;-65
2023/06/23 07:22:06;;;;;;;13.88;11.68;;;;;;;;;;5048810;28;20099;-66
2023/06/23 07:24:31;;;;;;;13.82;10.60;;;;;;;;;;5066970;28;20037;-68
2023/06/23 07:26:56;;;;;;;15.00;11.23;;;;;;;;;;5049076;28;20025;-65
2023/06/23 07:29:21;;;;;;;12.77;10.93;;;;;;;;;;5048057;28;20275;-65
2023/06/23 07:31:47;;;;;;;13.90;11.50;;;;;;;;;;5066165;28;20279;-67
2023/06/23 07:34:12;;;;;;;11.57;9.45;;;;;;;;;;5066126;28;20386;-65
2023/06/23 07:36:37;;;;;;;10.40;9.13;;;;;;;;;;5066139;28;20295;-64
2023/06/23 07:39:03;;;;;;;14.10;10.13;;;;;;;;;;5063793;28;21027;-64
2023/06/23 07:41:28;;;;;;;12.05;9.57;;;;;;;;;;5064279;28;20408;-66
2023/06/23 07:43:53;;;;;;;15.43;11.10;;;;;;;;;;5064423;28;20036;-67
2023/06/23 07:46:18;;;;;;;14.53;11.30;;;;;;;;;;5067146;28;20025;-67
2023/06/23 07:48:43;;;;;;;15.52;12.18;;;;;;;;;;5066474;28;20029;-64
2023/06/23 07:51:09;;;;;;;15.77;11.73;;;;;;;;;;5076311;28;20558;-66
2023/06/23 07:53:34;;;;;;;16.15;10.82;;;;;;;;;;5066303;28;20313;-66
2023/06/23 07:56:00;;;;;;;14.80;11.37;;;;;;;;;;5065051;28;20097;-64
2023/06/23 07:58:25;;;;;;;14.55;11.00;;;;;;;;;;5065529;28;20849;-65
2023/06/23 08:00:52;;;;;;;14.40;10.83;;;;;;;;;;5065582;28;20020;-65
2023/06/23 08:03:17;;;;;;;11.98;10.23;;;;;;;;;;5063801;28;20329;-64
2023/06/23 08:05:43;;;;;;;13.10;10.80;;;;;;;;;;5045565;28;20079;-66
2023/06/23 08:08:08;;;;;;;14.47;11.17;;;;;;;;;;5054972;28;20036;-67
2023/06/23 08:10:33;;;;;;;15.65;10.55;;;;;;;;;;5064013;28;20040;-67
2023/06/23 08:12:59;;;;;;;15.63;11.47;;;;;;;;;;5064232;28;20025;-69
2023/06/23 08:15:24;;;;;;;15.13;11.35;;;;;;;;;;5030545;28;20344;-69
2023/06/23 08:17:49;;;;;;;12.83;10.70;;;;;;;;;;5047897;28;20095;-68
2023/06/23 08:20:14;;;;;;;12.53;10.00;;;;;;;;;;5068297;28;20352;-65
2023/06/23 08:22:40;;;;;;;11.23;10.00;;;;;;;;;;5067340;28;20796;-67
2023/06/23 08:25:06;;;;;;;12.88;9.88;;;;;;;;;;5071732;28;20485;-66
2023/06/23 08:27:31;;;;;;;14.07;9.85;;;;;;;;;;5070989;28;20117;-71
2023/06/23 08:29:56;;;;;;;14.07;10.23;;;;;;;;;;5052526;28;20039;-69
2023/06/23 08:32:21;;;;;;;13.23;10.98;;;;;;;;;;5064455;28;20033;-66
2023/06/23 08:34:48;;;;;;;14.57;10.33;;;;;;;;;;5066106;28;20109;-67
2023/06/23 08:37:13;;;;;;;13.77;10.07;;;;;;;;;;5062395;28;20295;-67
2023/06/23 08:39:39;;;;;;;12.20;9.93;;;;;;;;;;5048067;28;20041;-65
2023/06/23 08:42:04;;;;;;;13.00;9.38;;;;;;;;;;5072295;28;20097;-67
2023/06/23 08:44:31;;;;;;;12.85;9.70;;;;;;;;;;5064906;28;20402;-63
2023/06/23 08:46:57;;;;;;;11.80;9.32;;;;;;;;;;5070706;28;20031;-68
2023/06/23 08:49:23;;;;;;;11.77;9.32;;;;;;;;;;5063758;28;20264;-67
2023/06/23 08:51:48;;;;;;;12.63;9.38;;;;;;;;;;5089073;28;20211;-69
2023/06/23 08:54:14;;;;;;;13.55;10.15;;;;;;;;;;5063629;28;20117;-65
2023/06/23 08:56:39;;;;;;;11.82;9.23;;;;;;;;;;5063832;28;20635;-69
2023/06/23 08:59:05;;;;;;;13.27;9.27;;;;;;;;;;5060250;28;20188;-68
2023/06/23 09:01:30;;;;;;;10.55;9.27;;;;;;;;;;5053762;28;20710;-66
2023/06/23 09:03:55;;;;;;;11.70;9.20;;;;;;;;;;5064038;28;20050;-67
2023/06/23 09:06:20;;;;;;;13.03;9.50;;;;;;;;;;5047089;28;20644;-65
2023/06/23 09:08:45;;;;;;;14.17;9.43;;;;;;;;;;5064498;28;21110;-64
2023/06/23 09:11:11;;;;;;;11.07;8.83;;;;;;;;;;5046419;28;20190;-68
2023/06/23 09:13:36;;;;;;;12.77;9.00;;;;;;;;;;5048403;28;20788;-67
2023/06/23 09:16:01;;;;;;;11.77;9.02;;;;;;;;;;5059045;28;20660;-66
2023/06/23 09:18:27;;;;;;;11.43;8.60;;;;;;;;;;5056700;28;20055;-65
2023/06/23 09:20:54;;;;;;;13.40;10.00;;;;;;;;;;5055177;28;20032;-64
2023/06/23 09:23:20;;;;;;;30.52;17.42;;;;;;;;;;5050552;28;20079;-63
2023/06/23 09:25:49;;;;;;;35.33;19.67;;;;;;;;;;5066012;28;20032;-67
2023/06/23 09:28:21;;;;;;;23.02;15.20;;;;;;;;;;5047943;28;20553;-65
2023/06/23 09:30:47;;;;;;;21.83;12.95;;;;;;;;;;5048731;28;20086;-67
2023/06/23 09:33:12;;;;;;;16.70;10.83;;;;;;;;;;5049812;28;20024;-66
2023/06/23 09:35:44;;;;;;;15.83;10.60;;;;;;;;;;5032310;28;20378;-68
2023/06/23 09:38:09;;;;;;;16.15;11.15;;;;;;;;;;5048419;28;20347;-68
2023/06/23 09:40:34;;;;;;;15.55;10.52;;;;;;;;;;5049018;28;20048;-70
2023/06/23 09:43:00;;;;;;;15.07;10.10;;;;;;;;;;5049088;28;20063;-65
2023/06/23 09:45:25;;;;;;;12.88;9.88;;;;;;;;;;5048435;28;20283;-67
2023/06/23 09:47:50;;;;;;;13.57;9.30;;;;;;;;;;5050049;28;20037;-67
2023/06/23 09:50:16;;;;;;;12.77;9.17;;;;;;;;;;5048348;28;20775;-67
2023/06/23 09:52:41;;;;;;;12.52;8.38;;;;;;;;;;5050563;28;20299;-67
2023/06/23 09:55:07;;;;;;;11.75;8.52;;;;;;;;;;5049055;28;20029;-64
2023/06/23 09:57:32;;;;;;;12.30;9.05;;;;;;;;;;5047532;28;20149;-67
2023/06/23 09:59:58;;;;;;;10.37;8.50;;;;;;;;;;5050714;28;20041;-67
2023/06/23 10:02:27;;;;;;;12.20;8.90;;;;;;;;;;5045791;28;20056;-66
2023/06/23 10:04:59;;;;;;;13.03;8.53;;;;;;;;;;5048409;28;20802;-70
2023/06/23 10:07:25;;;;;;;11.20;8.75;;;;;;;;;;5048350;28;20672;-66
2023/06/23 10:09:51;;;;;;;10.25;7.93;;;;;;;;;;5050109;28;20172;-65
2023/06/23 10:12:20;;;;;;;10.65;8.02;;;;;;;;;;5050392;28;20032;-66
2023/06/23 10:14:45;;;;;;;8.15;7.30;;;;;;;;;;5032454;28;20689;-68
2023/06/23 10:17:10;;;;;;;9.85;7.50;;;;;;;;;;5047555;28;20168;-72
2023/06/23 10:19:35;;;;;;;9.52;7.50;;;;;;;;;;5047798;28;20048;-67
2023/06/23 10:22:01;;;;;;;10.23;8.03;;;;;;;;;;5044264;28;20592;-66
2023/06/23 10:24:27;;;;;;;12.70;8.10;;;;;;;;;;5049249;28;20456;-69
2023/06/23 10:26:52;;;;;;;10.57;7.38;;;;;;;;;;5049137;28;20505;-70
2023/06/23 10:29:18;;;;;;;10.30;7.40;;;;;;;;;;5048782;28;20582;-68
2023/06/23 10:31:43;;;;;;;10.25;7.60;;;;;;;;;;5049422;28;20385;-69
2023/06/23 10:34:15;;;;;;;10.77;7.63;;;;;;;;;;5049889;28;20512;-66
2023/06/23 10:36:41;;;;;;;12.55;6.85;;;;;;;;;;5066285;28;20050;-65
2023/06/23 10:39:07;;;;;;;10.90;7.10;;;;;;;;;;5048073;28;20044;-67
2023/06/23 10:41:32;;;;;;;10.98;7.57;;;;;;;;;;5046334;28;20498;-68
2023/06/23 10:43:58;;;;;;;10.25;7.50;;;;;;;;;;5045910;28;21001;-68
2023/06/23 10:46:23;;;;;;;10.57;7.50;;;;;;;;;;5049399;28;20021;-68
2023/06/23 10:48:48;;;;;;;11.00;7.83;;;;;;;;;;5043972;28;20021;-66
2023/06/23 10:51:13;;;;;;;10.50;7.43;;;;;;;;;;5046704;28;20881;-65
2023/06/23 10:53:47;;;;;;;9.10;7.50;;;;;;;;;;5049899;28;20279;-64
2023/06/23 10:56:28;;;;;;;9.75;7.35;;;;;;;;;;5048682;28;20592;-66
2023/06/23 10:58:53;;;;;;;10.23;7.07;;;;;;;;;;5049181;28;20053;-69
2023/06/23 11:01:19;;;;;;;10.30;7.77;;;;;;;;;;5049895;28;20052;-62
2023/06/23 11:03:44;;;;;;;9.95;6.95;;;;;;;;;;5049682;28;20055;-70
2023/06/23 11:06:09;;;;;;;9.50;7.27;;;;;;;;;;5048038;28;20040;-68
2023/06/23 11:08:35;;;;;;;10.77;7.15;;;;;;;;;;5050444;28;20834;-65
2023/06/23 11:11:02;;;;;;;10.45;7.00;;;;;;;;;;5063499;28;20044;-67
2023/06/23 11:13:32;;;;;;;11.07;7.30;;;;;;;;;;5048907;28;20048;-67
2023/06/23 11:15:58;;;;;;;9.88;6.60;;;;;;;;;;5047053;28;20489;-65
2023/06/23 11:18:24;;;;;;;10.27;7.18;;;;;;;;;;5048983;28;20052;-65
2023/06/23 11:20:49;;;;;;;9.38;7.05;;;;;;;;;;5050543;28;20091;-65
2023/06/23 11:23:14;;;;;;;8.98;7.15;;;;;;;;;;5050531;28;20087;-64
2023/06/23 11:25:41;;;;;;;10.17;6.80;;;;;;;;;;5053077;28;20393;-65
2023/06/23 11:28:25;;;;;;;11.10;7.13;;;;;;;;;;5055218;28;20425;-65
2023/06/23 11:31:10;;;;;;;8.75;7.03;;;;;;;;;;5067824;28;20041;-67
2023/06/23 11:33:40;;;;;;;10.77;7.13;;;;;;;;;;5058404;28;20623;-65
2023/06/23 11:36:08;;;;;;;10.02;7.13;;;;;;;;;;5067153;28;20032;-64
2023/06/23 11:38:34;;;;;;;12.15;7.03;;;;;;;;;;5058273;28;20056;-66
2023/06/23 11:40:59;;;;;;;8.68;6.43;;;;;;;;;;5049542;28;20041;-66
2023/06/23 11:43:25;;;;;;;8.40;6.95;;;;;;;;;;5052382;28;20298;-64
2023/06/23 11:45:56;;;;;;;11.10;7.65;;;;;;;;;;5050966;28;20111;-65
2023/06/23 11:48:28;;;;;;;11.55;6.93;;;;;;;;;;5051164;28;20135;-64
2023/06/23 11:50:54;;;;;;;7.85;6.05;;;;;;;;;;5050014;28;20095;-66
2023/06/23 11:53:19;;;;;;;9.13;6.72;;;;;;;;;;5052070;28;20137;-66
2023/06/23 11:55:45;;;;;;;8.57;6.63;;;;;;;;;;5044626;28;20124;-67
2023/06/23 11:58:10;;;;;;;9.23;6.85;;;;;;;;;;5053390;28;20182;-67
2023/06/23 12:00:35;;;;;;;9.05;6.60;;;;;;;;;;5048983;28;20506;-64
2023/06/23 12:03:00;;;;;;;8.32;6.68;;;;;;;;;;5046629;28;20053;-66
2023/06/23 12:05:27;;;;;;;12.67;7.30;;;;;;;;;;5051802;28;20041;-65
2023/06/23 12:07:52;;;;;;;10.80;6.63;;;;;;;;;;5051665;28;20041;-65
2023/06/23 12:10:18;;;;;;;10.00;7.03;;;;;;;;;;5063352;28;20174;-65
2023/06/23 12:12:45;;;;;;;11.48;7.30;;;;;;;;;;5085794;28;20036;-65
2023/06/23 12:15:11;;;;;;;9.13;6.93;;;;;;;;;;5071281;28;20049;-64
2023/06/23 12:17:39;;;;;;;9.55;7.35;;;;;;;;;;5067211;28;20150;-66
2023/06/23 12:20:05;;;;;;;12.05;7.22;;;;;;;;;;5073417;28;20044;-64
2023/06/23 12:22:36;;;;;;;9.23;7.03;;;;;;;;;;5077343;28;20029;-65
2023/06/23 12:25:02;;;;;;;10.02;6.82;;;;;;;;;;5081211;28;20103;-64
2023/06/23 12:27:29;;;;;;;10.48;6.88;;;;;;;;;;5069513;28;20462;-63
2023/06/23 12:29:54;;;;;;;9.65;6.75;;;;;;;;;;5070709;28;20122;-68
2023/06/23 12:32:19;;;;;;;10.27;7.53;;;;;;;;;;5089262;28;20071;-67
2023/06/23 12:34:48;;;;;;;11.13;7.33;;;;;;;;;;5040835;28;20078;-67
2023/06/23 12:37:14;;;;;;;9.20;6.35;;;;;;;;;;5053406;28;20317;-64
2023/06/23 12:39:39;;;;;;;11.27;7.32;;;;;;;;;;5052766;28;20036;-68
2023/06/23 12:42:08;;;;;;;11.25;6.85;;;;;;;;;;5049454;28;20048;-66
2023/06/23 12:44:35;;;;;;;11.07;7.18;;;;;;;;;;5049420;28;20041;-66
2023/06/23 12:47:04;;;;;;;10.88;7.78;;;;;;;;;;5058766;28;20028;-69
2023/06/23 12:49:32;;;;;;;9.70;7.35;;;;;;;;;;5063679;28;20398;-67
2023/06/23 12:51:58;;;;;;;9.27;7.30;;;;;;;;;;5063271;28;20085;-63
2023/06/23 12:54:26;;;;;;;14.35;7.38;;;;;;;;;;5045453;28;20039;-67
2023/06/23 12:56:51;;;;;;;9.77;6.78;;;;;;;;;;5065325;28;20028;-69
2023/06/23 12:59:16;;;;;;;9.37;6.80;;;;;;;;;;5064698;28;20033;-64
2023/06/23 13:01:42;;;;;;;9.23;6.77;;;;;;;;;;5061170;28;20032;-66
2023/06/23 13:04:08;;;;;;;9.48;6.75;;;;;;;;;;5095443;22;20172;-70
2023/06/23 13:06:33;;;;;;;8.83;5.90;;;;;;;;;;5028424;28;20020;-68
2023/06/23 13:08:59;;;;;;;11.30;6.75;;;;;;;;;;5064596;28;20304;-71
2023/06/23 13:11:24;;;;;;;12.35;6.53;;;;;;;;;;5048351;28;20107;-73
2023/06/23 13:13:49;;;;;;;10.23;6.97;;;;;;;;;;5059952;28;20009;-76
2023/06/23 13:16:15;;;;;;;10.10;6.27;;;;;;;;;;5048801;28;20025;-70
2023/06/23 13:18:41;;;;;;;9.15;6.20;;;;;;;;;;5044990;28;20660;-71
2023/06/23 13:21:06;;;;;;;8.85;6.60;;;;;;;;;;5061217;28;20025;-68
2023/06/23 13:23:31;;;;;;;11.50;6.30;;;;;;;;;;5058075;28;20560;-69
2023/06/23 13:25:56;;;;;;;11.38;7.20;;;;;;;;;;5044291;28;20268;-72
2023/06/23 13:28:21;;;;;;;9.33;6.00;;;;;;;;;;5028618;28;20061;-71
2023/06/23 13:30:47;;;;;;;8.70;6.40;;;;;;;;;;5070248;28;20270;-70
2023/06/23 13:33:14;;;;;;;7.68;6.57;;;;;;;;;;5064023;28;20066;-74
2023/06/23 13:35:39;;;;;;;8.40;6.28;;;;;;;;;;5045162;28;20049;-71
2023/06/23 13:38:04;;;;;;;10.87;6.60;;;;;;;;;;5045042;28;20061;-68
2023/06/23 13:40:30;;;;;;;8.30;6.20;;;;;;;;;;5072981;22;20843;-70
2023/06/23 13:42:55;;;;;;;7.93;5.77;;;;;;;;;;5071826;28;20398;-69
2023/06/23 13:45:20;;;;;;;10.75;5.93;;;;;;;;;;5076971;28;20520;-69
2023/06/23 13:47:45;;;;;;;10.03;6.37;;;;;;;;;;5060254;28;20045;-69
2023/06/23 13:50:17;;;;;;;9.43;6.10;;;;;;;;;;5076593;28;20417;-71
2023/06/23 13:52:42;;;;;;;10.40;6.15;;;;;;;;;;5060941;28;20787;-69
2023/06/23 13:55:09;;;;;;;10.90;6.57;;;;;;;;;;5071286;28;20029;-69
2023/06/23 13:57:34;;;;;;;9.93;6.03;;;;;;;;;;5063715;28;20101;-69
2023/06/23 13:59:59;;;;;;;8.25;5.85;;;;;;;;;;5051959;28;20511;-73
2023/06/23 14:02:24;;;;;;;9.57;6.13;;;;;;;;;;5052946;28;20028;-71
2023/06/23 14:04:50;;;;;;;8.37;6.23;;;;;;;;;;5068487;28;20270;-73
2023/06/23 14:07:15;;;;;;;8.80;6.00;;;;;;;;;;5071050;28;20811;-73
2023/06/23 14:09:40;;;;;;;7.97;5.67;;;;;;;;;;5072321;28;20286;-71
2023/06/23 14:12:06;;;;;;;9.40;6.07;;;;;;;;;;5071472;28;20017;-74
2023/06/23 14:14:32;;;;;;;9.68;6.28;;;;;;;;;;5065857;28;20568;-71
2023/06/23 14:16:57;;;;;;;9.53;6.23;;;;;;;;;;5056012;28;20345;-71
2023/06/23 14:19:22;;;;;;;10.45;6.35;;;;;;;;;;5069996;28;20799;-71
2023/06/23 14:21:47;;;;;;;8.00;5.93;;;;;;;;;;5068227;28;20040;-71
2023/06/23 14:24:13;;;;;;;9.83;6.33;;;;;;;;;;5069467;28;20305;-72